LIPX/VRN METAR and TAF weather

Enter ICAO airport designator
Station Type Date Time Source
LIPX METAR 2021/09/20 05:20 UTC NOAA

LIPX 200520Z 04005KT CAVOK 14/13 Q1011


Station Type Date Time Source
LIPX Decoded METAR 2021/09/20 05:20 UTC NOAA

Verona / Villafranca, Italy (LIPX) 45-23N 010-52E 68M
Sep 20, 2021 - 01:20 AM EDT / 2021.09.20 0520 UTC
Wind: from the NE (040 degrees) at 6 MPH (5 KT):0
Visibility: greater than 7 mile(s):0
Temperature: 57 F (14 C)
Dew Point: 55 F (13 C)
Relative Humidity: 93%
Pressure (altimeter): 29.85 in. Hg (1011 hPa)
ob: LIPX 200520Z 04005KT CAVOK 14/13 Q1011
cycle: 5

Station Type Date Time Source
LIPX TAF 2021/09/20 06:24 UTC NOAA

TAF LIPX 200500Z 2006/2106 VRB05KT CAVOK
BECMG 2008/2010 08010KT
BECMG 2018/2020 VRB05KT

Example: see airport list